createdAt,value
2022-12-07T00:01:51.157Z,15.00
2022-12-07T00:04:18.987Z,15.00
2022-12-07T00:06:51.047Z,15.10
2022-12-07T00:09:18.643Z,15.00
2022-12-07T00:11:48.760Z,15.10
2022-12-07T00:14:17.174Z,15.00
2022-12-07T00:16:44.773Z,15.10
2022-12-07T00:19:14.383Z,15.00
2022-12-07T00:21:41.449Z,15.10
2022-12-07T00:24:08.684Z,15.00
2022-12-07T00:26:37.854Z,15.00
2022-12-07T00:29:16.213Z,15.00
2022-12-07T00:31:43.134Z,15.10
2022-12-07T00:34:15.203Z,14.90
2022-12-07T00:36:42.150Z,14.80
2022-12-07T00:39:09.642Z,14.90
2022-12-07T00:41:36.476Z,14.80
2022-12-07T00:44:03.840Z,14.80
2022-12-07T00:46:31.423Z,14.70
2022-12-07T00:48:58.281Z,14.70
2022-12-07T00:51:26.225Z,14.70
2022-12-07T00:53:54.146Z,14.70
2022-12-07T00:56:29.180Z,14.80
2022-12-07T00:59:03.843Z,14.80
2022-12-07T01:01:33.803Z,14.80
2022-12-07T01:04:03.984Z,14.80
2022-12-07T01:06:31.406Z,14.80
2022-12-07T01:08:58.304Z,14.80
2022-12-07T01:11:27.689Z,14.70
2022-12-07T01:13:56.294Z,14.80
2022-12-07T01:16:25.811Z,14.80
2022-12-07T01:18:54.778Z,14.70
2022-12-07T01:21:30.053Z,14.80
2022-12-07T01:23:58.809Z,14.80
2022-12-07T01:26:26.769Z,14.80
2022-12-07T01:28:55.960Z,14.70
2022-12-07T01:31:25.757Z,14.80
2022-12-07T01:33:55.669Z,14.80
2022-12-07T01:36:25.111Z,14.80
2022-12-07T01:38:57.567Z,14.80
2022-12-07T01:41:27.058Z,14.80
2022-12-07T01:44:12.424Z,14.80
2022-12-07T01:46:40.213Z,14.90
2022-12-07T01:49:29.357Z,14.80
2022-12-07T01:52:22.623Z,14.80
2022-12-07T01:54:53.429Z,14.80
2022-12-07T01:57:21.074Z,14.80
2022-12-07T01:59:51.790Z,14.80
2022-12-07T02:02:27.499Z,14.80
2022-12-07T02:04:56.763Z,14.90
2022-12-07T02:07:24.852Z,14.90
2022-12-07T02:09:51.665Z,14.80
2022-12-07T02:12:19.028Z,14.80
2022-12-07T02:14:45.851Z,14.80
2022-12-07T02:17:20.564Z,14.80
2022-12-07T02:20:01.689Z,14.80
2022-12-07T02:22:51.911Z,14.70
2022-12-07T02:25:40.291Z,14.70
2022-12-07T02:28:17.970Z,14.60
2022-12-07T02:30:49.742Z,14.60
2022-12-07T02:33:24.060Z,14.60
2022-12-07T02:36:11.182Z,14.60
2022-12-07T02:38:40.747Z,14.60
2022-12-07T02:41:10.842Z,14.60
2022-12-07T02:43:44.077Z,14.60
2022-12-07T02:46:19.414Z,14.60
2022-12-07T02:48:47.503Z,14.60
2022-12-07T02:51:14.423Z,14.60
2022-12-07T02:53:43.636Z,14.60
2022-12-07T02:56:41.316Z,14.60
2022-12-07T02:59:46.560Z,14.60
2022-12-07T03:02:43.807Z,14.60
2022-12-07T03:05:39.301Z,14.50
2022-12-07T03:08:19.735Z,14.60
2022-12-07T03:10:59.127Z,14.40
2022-12-07T03:13:25.897Z,14.50
2022-12-07T03:16:02.063Z,14.40
2022-12-07T03:18:33.229Z,14.40
2022-12-07T03:21:12.833Z,14.40
2022-12-07T03:23:42.466Z,14.40
2022-12-07T03:26:13.244Z,14.40
2022-12-07T03:28:45.110Z,14.40
2022-12-07T03:31:26.701Z,14.40
2022-12-07T03:34:08.585Z,14.40
2022-12-07T03:37:15.738Z,14.40
2022-12-07T03:40:05.485Z,14.50
2022-12-07T03:42:33.834Z,14.50
2022-12-07T03:45:03.082Z,14.50
2022-12-07T03:47:49.091Z,14.50
2022-12-07T03:50:54.792Z,14.50
2022-12-07T03:53:39.806Z,14.50
2022-12-07T03:56:08.745Z,14.50
2022-12-07T03:58:36.149Z,14.50
2022-12-07T04:01:02.973Z,14.40
2022-12-07T04:03:29.849Z,14.40
2022-12-07T04:05:56.793Z,14.40
2022-12-07T04:08:23.587Z,14.40
2022-12-07T04:10:50.453Z,14.40
2022-12-07T04:13:17.549Z,14.50
2022-12-07T04:15:44.355Z,14.50
2022-12-07T04:18:11.344Z,14.50
2022-12-07T04:20:38.265Z,14.50
2022-12-07T04:23:05.052Z,14.50
2022-12-07T04:25:31.869Z,14.40
2022-12-07T04:27:58.726Z,14.50
2022-12-07T04:30:25.520Z,14.30
2022-12-07T04:32:52.296Z,14.40
2022-12-07T04:35:19.114Z,14.40
2022-12-07T04:37:45.943Z,14.40
2022-12-07T04:40:15.296Z,14.40
2022-12-07T04:42:42.122Z,14.40
2022-12-07T04:45:09.512Z,14.40
2022-12-07T04:47:36.323Z,14.40
2022-12-07T04:50:03.594Z,14.40
2022-12-07T04:52:30.603Z,14.50
2022-12-07T04:54:57.424Z,14.40
2022-12-07T04:57:24.256Z,14.40
2022-12-07T04:59:51.059Z,14.40
2022-12-07T05:02:17.910Z,14.40
2022-12-07T05:04:44.746Z,14.40
2022-12-07T05:07:11.551Z,14.30
2022-12-07T05:09:38.398Z,14.30
2022-12-07T05:12:05.207Z,14.30
2022-12-07T05:14:31.965Z,14.20
2022-12-07T05:16:58.790Z,14.20
2022-12-07T05:19:27.189Z,14.20
2022-12-07T05:21:54.578Z,14.30
2022-12-07T05:24:21.554Z,14.20
2022-12-07T05:26:48.498Z,14.20
2022-12-07T05:29:17.140Z,14.20
2022-12-07T05:31:45.121Z,14.20
2022-12-07T05:34:12.195Z,14.10
2022-12-07T05:36:39.176Z,14.10
2022-12-07T05:39:06.747Z,14.20
2022-12-07T05:41:51.990Z,14.20
2022-12-07T05:44:18.812Z,14.10
2022-12-07T05:46:45.593Z,14.10
2022-12-07T05:49:12.620Z,14.10
2022-12-07T05:51:39.430Z,14.10
2022-12-07T05:54:06.287Z,14.10
2022-12-07T05:56:33.116Z,14.10
2022-12-07T05:59:18.409Z,14.10
2022-12-07T06:01:45.323Z,14.10
2022-12-07T06:04:12.241Z,14.10
2022-12-07T06:06:39.166Z,14.10
2022-12-07T06:09:06.303Z,14.00
2022-12-07T06:11:51.803Z,14.10
2022-12-07T06:14:18.645Z,14.10
2022-12-07T06:16:45.608Z,13.90
2022-12-07T06:19:12.633Z,14.00
2022-12-07T06:21:39.536Z,14.10
2022-12-07T06:24:06.772Z,14.00
2022-12-07T06:26:33.743Z,14.00
2022-12-07T06:29:00.515Z,13.90
2022-12-07T06:31:27.404Z,13.80
2022-12-07T06:34:02.400Z,13.80
2022-12-07T06:36:29.519Z,13.80
2022-12-07T06:38:56.914Z,13.80
2022-12-07T06:41:24.325Z,13.80
2022-12-07T06:43:56.029Z,13.80
2022-12-07T06:46:24.480Z,13.80
2022-12-07T06:48:51.554Z,13.80
2022-12-07T06:51:18.379Z,13.80
2022-12-07T06:53:45.272Z,13.90
2022-12-07T06:56:12.162Z,13.80
2022-12-07T06:58:39.888Z,13.80
2022-12-07T07:01:14.855Z,13.90
2022-12-07T07:03:42.403Z,13.90
2022-12-07T07:06:09.375Z,14.00
2022-12-07T07:08:37.887Z,14.00
2022-12-07T07:11:05.473Z,14.00
2022-12-07T07:13:32.369Z,14.10
2022-12-07T07:15:59.265Z,14.00
2022-12-07T07:18:26.778Z,14.00
2022-12-07T07:20:54.109Z,14.10
2022-12-07T07:23:21.713Z,14.10
2022-12-07T07:25:48.998Z,14.10
2022-12-07T07:28:16.834Z,14.20
2022-12-07T07:30:44.038Z,14.20
2022-12-07T07:33:11.499Z,14.30
2022-12-07T07:35:38.731Z,14.20
2022-12-07T07:38:05.875Z,14.30
2022-12-07T07:40:33.057Z,14.40
2022-12-07T07:42:59.930Z,14.40
2022-12-07T07:45:28.399Z,14.40
2022-12-07T07:47:55.518Z,14.40
2022-12-07T07:50:22.952Z,14.40
2022-12-07T07:52:50.006Z,14.40
2022-12-07T07:55:17.324Z,14.50
2022-12-07T07:57:46.216Z,14.50
2022-12-07T08:00:17.327Z,14.60
2022-12-07T08:02:44.696Z,14.60
2022-12-07T08:05:13.246Z,14.70
2022-12-07T08:07:40.218Z,14.70
2022-12-07T08:10:08.388Z,14.80
2022-12-07T08:13:01.214Z,14.80
2022-12-07T08:15:30.124Z,14.80
2022-12-07T08:17:57.013Z,14.80
2022-12-07T08:20:24.130Z,14.90
2022-12-07T08:22:50.999Z,14.90
2022-12-07T08:25:18.270Z,15.00
2022-12-07T08:27:45.080Z,15.00
2022-12-07T08:30:12.213Z,15.00
2022-12-07T08:32:39.314Z,15.00
2022-12-07T08:35:06.522Z,15.00
2022-12-07T08:37:34.127Z,15.00
2022-12-07T08:40:01.371Z,15.00
2022-12-07T08:42:30.858Z,14.90
2022-12-07T08:44:58.228Z,15.00
2022-12-07T08:47:26.345Z,14.90
2022-12-07T08:49:54.830Z,15.00
2022-12-07T08:52:21.750Z,15.00
2022-12-07T08:54:48.999Z,15.10
2022-12-07T08:57:15.928Z,15.10
2022-12-07T08:59:42.830Z,15.20
2022-12-07T09:02:09.696Z,15.20
2022-12-07T09:04:36.619Z,15.30
2022-12-07T09:07:03.821Z,15.30
2022-12-07T09:09:31.000Z,15.30
2022-12-07T09:11:57.917Z,15.40
2022-12-07T09:14:25.309Z,15.40
2022-12-07T09:16:52.144Z,15.60
2022-12-07T09:19:19.205Z,15.60
2022-12-07T09:21:46.186Z,15.70
2022-12-07T09:24:14.177Z,15.60
2022-12-07T09:26:41.560Z,15.70
2022-12-07T09:29:08.675Z,15.80
2022-12-07T09:31:37.920Z,15.80
2022-12-07T09:34:06.804Z,15.80
2022-12-07T09:36:33.930Z,15.70
2022-12-07T09:39:00.954Z,15.80
2022-12-07T09:41:30.920Z,15.70
2022-12-07T09:44:21.418Z,15.80
2022-12-07T09:46:48.790Z,15.80
2022-12-07T09:49:20.129Z,15.90
2022-12-07T09:51:47.974Z,15.90
2022-12-07T09:54:17.088Z,16.00
2022-12-07T09:56:45.032Z,16.00
2022-12-07T09:59:18.454Z,16.10
2022-12-07T10:01:48.128Z,16.10
2022-12-07T10:04:21.993Z,16.10
2022-12-07T10:06:49.606Z,16.10
2022-12-07T10:09:19.508Z,16.10
2022-12-07T10:12:04.430Z,16.00
2022-12-07T10:15:05.565Z,16.00
2022-12-07T10:17:41.941Z,16.00
2022-12-07T10:20:17.910Z,16.00
2022-12-07T10:22:56.632Z,16.00
2022-12-07T10:25:26.923Z,16.10
2022-12-07T10:28:09.078Z,16.10
2022-12-07T10:30:52.739Z,16.10
2022-12-07T10:33:35.792Z,16.10
2022-12-07T10:36:21.437Z,15.90
2022-12-07T10:39:03.187Z,15.90
2022-12-07T10:41:30.258Z,15.90
2022-12-07T10:43:58.661Z,15.90
2022-12-07T10:46:48.448Z,16.00
2022-12-07T10:49:50.811Z,16.20
2022-12-07T10:52:53.655Z,16.30
2022-12-07T10:55:26.937Z,16.30
2022-12-07T10:58:27.879Z,16.40
2022-12-07T11:01:06.880Z,16.40
2022-12-07T11:03:49.056Z,16.50
2022-12-07T11:06:43.002Z,16.50
2022-12-07T11:10:19.172Z,16.50
2022-12-07T11:12:33.576Z,16.60
2022-12-07T11:15:14.784Z,16.50
2022-12-07T11:17:57.526Z,16.30
2022-12-07T11:20:42.789Z,16.40
2022-12-07T11:23:28.070Z,16.40
2022-12-07T11:26:13.095Z,16.50
2022-12-07T11:29:04.822Z,16.50
2022-12-07T11:31:37.550Z,16.40
2022-12-07T11:34:35.659Z,16.40
2022-12-07T11:37:06.021Z,16.40
2022-12-07T11:39:57.522Z,16.40
2022-12-07T11:42:28.762Z,16.60
2022-12-07T11:45:15.151Z,16.60
2022-12-07T11:48:05.312Z,16.60
2022-12-07T11:50:40.206Z,16.60
2022-12-07T11:53:25.170Z,16.70
2022-12-07T11:56:04.975Z,16.60
2022-12-07T11:58:34.990Z,16.70
2022-12-07T12:01:28.266Z,16.80
2022-12-07T12:04:02.288Z,16.80
2022-12-07T12:06:28.993Z,16.80
2022-12-07T12:15:25.770Z,16.80
2022-12-07T12:18:02.663Z,16.70
2022-12-07T12:20:34.679Z,16.70
2022-12-07T12:23:11.331Z,16.60
2022-12-07T12:25:43.648Z,16.60
2022-12-07T12:28:50.399Z,16.70
2022-12-07T12:31:37.522Z,16.80
2022-12-07T12:34:25.915Z,16.90
2022-12-07T12:36:52.826Z,17.00
2022-12-07T12:39:21.811Z,17.00
2022-12-07T12:41:48.528Z,17.00
2022-12-07T12:44:20.781Z,17.00
2022-12-07T12:47:19.068Z,17.00
2022-12-07T12:50:19.216Z,17.10
2022-12-07T12:52:56.606Z,17.00
2022-12-07T12:55:45.686Z,17.00
2022-12-07T12:58:21.454Z,16.90
2022-12-07T13:00:50.287Z,16.90
2022-12-07T13:03:32.868Z,16.90
2022-12-07T13:06:18.422Z,16.80
2022-12-07T13:08:45.356Z,16.70
2022-12-07T13:11:31.821Z,16.80
2022-12-07T13:14:36.082Z,16.70
2022-12-07T13:17:03.245Z,16.60
2022-12-07T13:19:42.416Z,16.60
2022-12-07T13:22:41.696Z,16.50
2022-12-07T13:25:08.859Z,16.50
2022-12-07T13:27:39.964Z,16.50
2022-12-07T13:30:18.998Z,16.50
2022-12-07T13:32:56.942Z,16.70
2022-12-07T13:35:34.745Z,16.70
2022-12-07T13:38:22.554Z,16.60
2022-12-07T13:41:11.450Z,16.70
2022-12-07T13:44:09.990Z,16.70
2022-12-07T13:46:59.269Z,16.60
2022-12-07T13:49:27.270Z,16.60
2022-12-07T13:51:55.285Z,16.50
2022-12-07T13:54:23.530Z,16.50
2022-12-07T13:56:52.978Z,16.40
2022-12-07T13:59:25.795Z,16.50
2022-12-07T14:01:54.545Z,16.50
2022-12-07T14:04:35.044Z,16.40
2022-12-07T14:07:20.179Z,16.40
2022-12-07T14:09:56.522Z,16.40
2022-12-07T14:12:23.975Z,16.30
2022-12-07T14:14:51.580Z,16.20
2022-12-07T14:17:23.671Z,16.20
2022-12-07T14:19:56.275Z,16.20
2022-12-07T14:22:24.677Z,16.10
2022-12-07T14:24:51.890Z,16.10
2022-12-07T14:27:21.831Z,16.20
2022-12-07T14:29:49.086Z,16.20
2022-12-07T14:32:32.416Z,16.30
2022-12-07T14:35:01.264Z,16.30
2022-12-07T14:37:30.314Z,16.20
2022-12-07T14:39:57.608Z,16.30
2022-12-07T14:42:33.234Z,16.20
2022-12-07T14:45:01.055Z,16.20
2022-12-07T14:50:18.497Z,16.00
2022-12-07T14:55:47.524Z,15.90
2022-12-07T14:58:16.215Z,15.70
2022-12-07T15:00:43.547Z,15.70
2022-12-07T15:03:10.449Z,15.60
2022-12-07T15:05:38.365Z,15.50
2022-12-07T15:08:05.603Z,15.50
2022-12-07T15:10:35.034Z,15.40
2022-12-07T15:13:22.781Z,15.40
2022-12-07T15:15:51.316Z,15.30
2022-12-07T15:18:19.566Z,15.20
2022-12-07T15:20:46.894Z,15.20
2022-12-07T15:23:14.137Z,15.10
2022-12-07T15:25:45.671Z,15.10
2022-12-07T15:28:13.037Z,14.90
2022-12-07T15:30:41.525Z,14.90
2022-12-07T15:33:08.317Z,14.80
2022-12-07T15:35:39.160Z,14.80
2022-12-07T15:38:05.981Z,14.80
2022-12-07T15:40:32.798Z,14.70
2022-12-07T15:42:59.531Z,14.60
2022-12-07T15:45:27.249Z,14.60
2022-12-07T15:48:26.851Z,14.60
2022-12-07T15:50:42.977Z,14.60
2022-12-07T15:53:09.752Z,14.50
2022-12-07T15:55:39.186Z,14.50
2022-12-07T15:58:06.063Z,14.40
2022-12-07T16:00:33.235Z,14.30
2022-12-07T16:03:00.178Z,14.30
2022-12-07T16:05:27.022Z,14.30
2022-12-07T16:07:53.867Z,14.20
2022-12-07T16:10:20.688Z,14.20
2022-12-07T16:12:47.712Z,14.20
2022-12-07T16:15:14.785Z,14.20
2022-12-07T16:17:41.815Z,14.10
2022-12-07T16:20:09.197Z,14.10
2022-12-07T16:22:36.898Z,14.00
2022-12-07T16:25:04.685Z,14.10
2022-12-07T16:27:31.645Z,14.00
2022-12-07T16:29:58.515Z,13.90
2022-12-07T16:32:25.306Z,13.90
2022-12-07T16:34:52.028Z,13.90
2022-12-07T16:37:18.899Z,13.80
2022-12-07T16:39:45.787Z,13.80
2022-12-07T16:42:12.641Z,13.80
2022-12-07T16:44:40.093Z,13.80
2022-12-07T16:47:07.013Z,13.70
2022-12-07T16:49:33.918Z,13.70
2022-12-07T16:52:19.172Z,13.70
2022-12-07T16:54:47.525Z,13.70
2022-12-07T16:57:21.483Z,13.60
2022-12-07T16:59:49.664Z,13.60
2022-12-07T17:02:16.472Z,13.50
2022-12-07T17:04:43.534Z,13.60
2022-12-07T17:07:10.526Z,13.50
2022-12-07T17:09:37.953Z,13.50
2022-12-07T17:12:06.301Z,13.40
2022-12-07T17:14:51.724Z,13.40
2022-12-07T17:17:18.661Z,13.50
2022-12-07T17:19:47.425Z,13.30
2022-12-07T17:22:14.248Z,13.40
2022-12-07T17:24:41.089Z,13.50
2022-12-07T17:27:07.964Z,13.40
2022-12-07T17:29:35.041Z,13.30
2022-12-07T17:32:01.905Z,13.40
2022-12-07T17:34:28.822Z,13.30
2022-12-07T17:36:55.884Z,13.30
2022-12-07T17:39:23.114Z,13.20
2022-12-07T17:42:08.325Z,13.20
2022-12-07T17:44:35.096Z,13.30
2022-12-07T17:47:03.962Z,13.20
2022-12-07T17:49:31.037Z,13.20
2022-12-07T17:52:16.873Z,13.20
2022-12-07T17:54:44.173Z,13.30
2022-12-07T17:57:11.031Z,13.10
2022-12-07T17:59:38.145Z,13.20
2022-12-07T18:02:05.386Z,13.20
2022-12-07T18:04:32.947Z,13.10
2022-12-07T18:06:59.872Z,13.10
2022-12-07T18:09:27.451Z,13.20
2022-12-07T18:11:54.399Z,13.20
2022-12-07T18:14:21.333Z,13.20
2022-12-07T18:16:50.081Z,13.20
2022-12-07T18:19:17.335Z,13.20
2022-12-07T18:21:44.737Z,13.30
2022-12-07T18:24:14.090Z,13.20
2022-12-07T18:26:41.584Z,13.20
2022-12-07T18:29:10.571Z,13.10
2022-12-07T18:31:37.708Z,13.10
2022-12-07T18:34:08.876Z,13.10
2022-12-07T18:36:35.794Z,13.00
2022-12-07T18:39:05.720Z,13.00
2022-12-07T18:41:33.171Z,13.00
2022-12-07T18:44:00.070Z,12.90
2022-12-07T18:46:27.193Z,12.90
2022-12-07T18:48:59.182Z,12.90
2022-12-07T18:51:31.956Z,12.90
2022-12-07T18:54:01.246Z,13.00
2022-12-07T18:56:29.686Z,12.80
2022-12-07T18:59:17.333Z,12.90
2022-12-07T19:01:47.422Z,13.00
2022-12-07T19:04:14.469Z,12.70
2022-12-07T19:06:42.762Z,12.90
2022-12-07T19:09:10.027Z,12.80
2022-12-07T19:11:52.279Z,12.80
2022-12-07T19:14:27.249Z,12.80
2022-12-07T19:16:56.393Z,12.70
2022-12-07T19:19:24.904Z,12.70
2022-12-07T19:21:51.828Z,12.60
2022-12-07T19:24:23.304Z,12.60
2022-12-07T19:26:51.538Z,12.60
2022-12-07T19:29:18.627Z,12.40
2022-12-07T19:31:45.642Z,12.60
2022-12-07T19:34:16.176Z,12.40
2022-12-07T19:36:44.091Z,12.30
2022-12-07T19:39:14.797Z,12.40
2022-12-07T19:41:46.243Z,12.40
2022-12-07T19:44:22.866Z,12.40
2022-12-07T19:46:51.172Z,12.30
2022-12-07T19:49:19.252Z,12.40
2022-12-07T19:51:48.796Z,12.30
2022-12-07T19:54:18.390Z,12.40
2022-12-07T19:56:46.264Z,12.40
2022-12-07T19:59:14.782Z,12.40
2022-12-07T20:01:42.417Z,12.40
2022-12-07T20:04:29.292Z,12.20
2022-12-07T20:06:58.642Z,12.20
2022-12-07T20:09:25.619Z,12.20
2022-12-07T20:12:11.158Z,12.10
2022-12-07T20:14:38.202Z,12.00
2022-12-07T20:17:05.607Z,12.10
2022-12-07T20:19:32.697Z,12.00
2022-12-07T20:21:59.536Z,11.90
2022-12-07T20:24:26.573Z,11.90
2022-12-07T20:26:54.777Z,11.80
2022-12-07T20:29:24.206Z,11.80
2022-12-07T20:31:52.931Z,11.90
2022-12-07T20:34:20.050Z,11.80
2022-12-07T20:36:46.889Z,11.80
2022-12-07T20:39:14.442Z,11.80
2022-12-07T20:42:00.015Z,11.60
2022-12-07T20:44:27.679Z,11.70
2022-12-07T20:46:55.043Z,11.70
2022-12-07T20:49:22.226Z,11.60
2022-12-07T20:51:49.165Z,11.70
2022-12-07T20:54:16.065Z,11.60
2022-12-07T20:56:42.908Z,11.60
2022-12-07T20:59:15.233Z,11.60
2022-12-07T21:01:43.010Z,11.60
2022-12-07T21:04:12.022Z,11.50
2022-12-07T21:06:39.207Z,11.50
2022-12-07T21:09:06.116Z,11.50
2022-12-07T21:11:33.285Z,11.40
2022-12-07T21:14:00.620Z,11.40
2022-12-07T21:16:29.959Z,11.40
2022-12-07T21:19:00.170Z,11.40
2022-12-07T21:21:27.066Z,11.40
2022-12-07T21:24:01.490Z,11.40
2022-12-07T21:26:29.196Z,11.30
2022-12-07T21:28:57.522Z,11.30
2022-12-07T21:31:25.199Z,11.30
2022-12-07T21:33:52.312Z,11.30
2022-12-07T21:36:22.073Z,11.20
2022-12-07T21:38:49.863Z,11.20
2022-12-07T21:41:19.865Z,11.20
2022-12-07T21:43:47.746Z,11.10
2022-12-07T21:46:18.493Z,11.20
2022-12-07T21:48:53.073Z,11.10
2022-12-07T21:51:21.187Z,11.10
2022-12-07T21:53:49.408Z,11.10
2022-12-07T21:56:17.411Z,11.10
2022-12-07T21:58:44.866Z,11.00
2022-12-07T22:01:19.771Z,11.10
2022-12-07T22:03:47.225Z,11.00
2022-12-07T22:06:22.660Z,11.00
2022-12-07T22:08:50.098Z,11.00
2022-12-07T22:11:17.466Z,11.00
2022-12-07T22:14:09.972Z,10.90
2022-12-07T22:16:38.147Z,10.90
2022-12-07T22:19:05.185Z,10.90
2022-12-07T22:21:32.309Z,10.90
2022-12-07T22:23:59.301Z,10.90
2022-12-07T22:26:26.706Z,10.90
2022-12-07T22:28:53.881Z,10.80
2022-12-07T22:31:21.777Z,11.00
2022-12-07T22:33:49.362Z,10.90
2022-12-07T22:36:17.037Z,11.00
2022-12-07T22:38:43.912Z,10.90
2022-12-07T22:41:10.791Z,10.90
2022-12-07T22:43:38.002Z,11.00
2022-12-07T22:46:05.771Z,11.00
2022-12-07T22:48:33.287Z,11.10
2022-12-07T22:51:00.407Z,11.00
2022-12-07T22:53:27.593Z,11.10
2022-12-07T22:55:54.765Z,11.00
2022-12-07T22:58:21.626Z,10.90
2022-12-07T23:00:48.584Z,10.90
2022-12-07T23:03:15.901Z,10.90
2022-12-07T23:05:46.876Z,10.90
2022-12-07T23:08:13.921Z,11.00
2022-12-07T23:10:48.700Z,11.10
2022-12-07T23:13:32.666Z,11.00
2022-12-07T23:16:01.315Z,11.00
2022-12-07T23:18:28.414Z,11.10
2022-12-07T23:20:58.219Z,11.10
2022-12-07T23:23:26.250Z,11.10
2022-12-07T23:25:53.428Z,11.10
2022-12-07T23:28:20.412Z,11.10
2022-12-07T23:30:47.547Z,11.10
2022-12-07T23:33:14.586Z,11.10
2022-12-07T23:35:41.477Z,11.10
2022-12-07T23:38:08.286Z,11.20
2022-12-07T23:40:35.241Z,11.20
2022-12-07T23:43:02.076Z,11.10
2022-12-07T23:45:28.902Z,11.30
2022-12-07T23:47:55.750Z,11.30
2022-12-07T23:50:22.634Z,11.10
2022-12-07T23:52:49.437Z,11.10
2022-12-07T23:55:17.000Z,11.20
2022-12-07T23:57:43.914Z,11.10
